createdAt,value
2023-02-18T00:01:25.622Z,97894.13
2023-02-18T00:03:54.870Z,97893.31
2023-02-18T00:06:28.240Z,97895.13
2023-02-18T00:09:01.944Z,97883.56
2023-02-18T00:11:31.921Z,97897.81
2023-02-18T00:14:02.075Z,97892.44
2023-02-18T00:16:31.236Z,97887.06
2023-02-18T00:19:00.902Z,97891.63
2023-02-18T00:21:30.044Z,97889.75
2023-02-18T00:24:00.242Z,97914.78
2023-02-18T00:26:29.361Z,97913.94
2023-02-18T00:28:58.116Z,97931.72
2023-02-18T00:31:28.240Z,97947.03
2023-02-18T00:33:57.847Z,97974.50
2023-02-18T00:36:26.867Z,97987.09
2023-02-18T00:38:57.499Z,98009.41
2023-02-18T00:41:28.806Z,97991.47
2023-02-18T00:43:57.669Z,97991.66
2023-02-18T00:46:26.571Z,97995.34
2023-02-18T00:48:55.630Z,98009.78
2023-02-18T00:51:25.447Z,97995.53
2023-02-18T00:53:54.198Z,98003.59
2023-02-18T00:56:23.053Z,98010.81
2023-02-18T00:58:53.264Z,98007.31
2023-02-18T01:01:22.242Z,97997.38
2023-02-18T01:03:50.913Z,97995.53
2023-02-18T01:06:22.272Z,98002.75
2023-02-18T01:08:50.959Z,98015.16
2023-02-18T01:11:20.249Z,98017.00
2023-02-18T01:13:49.142Z,98025.91
2023-02-18T01:16:19.244Z,98004.41
2023-02-18T01:18:48.193Z,98023.22
2023-02-18T01:21:17.188Z,98009.78
2023-02-18T01:23:45.744Z,98007.09
2023-02-18T01:26:14.512Z,98013.50
2023-02-18T01:28:43.001Z,97998.22
2023-02-18T01:31:13.731Z,98008.78
2023-02-18T01:33:44.095Z,98007.94
2023-02-18T01:36:13.287Z,98008.78
2023-02-18T01:38:42.045Z,98001.72
2023-02-18T01:41:10.893Z,98016.84
2023-02-18T01:43:40.004Z,98012.31
2023-02-18T01:46:19.776Z,98021.34
2023-02-18T01:48:53.083Z,98027.59
2023-02-18T01:51:26.480Z,98042.00
2023-02-18T01:53:57.559Z,98043.72
2023-02-18T01:56:32.349Z,98055.44
2023-02-18T01:59:02.924Z,98028.59
2023-02-18T02:01:32.157Z,98027.75
2023-02-18T02:04:02.202Z,98036.66
2023-02-18T02:06:31.825Z,98035.00
2023-02-18T02:09:03.798Z,98029.63
2023-02-18T02:12:17.468Z,98027.09
2023-02-18T02:15:01.746Z,98025.25
2023-02-18T02:17:39.940Z,98030.00
2023-02-18T02:20:44.010Z,98010.16
2023-02-18T02:23:51.452Z,98018.22
2023-02-18T02:26:53.998Z,98017.19
2023-02-18T02:30:14.774Z,98019.88
2023-02-18T02:33:37.419Z,98026.09
2023-02-18T02:36:10.091Z,98038.88
2023-02-18T02:38:42.404Z,98038.88
2023-02-18T02:41:20.584Z,98037.84
2023-02-18T02:43:55.345Z,98034.31
2023-02-18T02:46:28.677Z,98035.16
2023-02-18T02:49:00.995Z,98049.41
2023-02-18T02:51:33.494Z,98042.38
2023-02-18T02:54:13.509Z,98045.91
2023-02-18T02:56:42.152Z,98048.59
2023-02-18T02:59:16.401Z,98057.47
2023-02-18T03:02:01.904Z,98043.22
2023-02-18T03:04:53.912Z,98053.13
2023-02-18T03:08:05.603Z,98048.59
2023-02-18T03:10:49.888Z,98058.34
2023-02-18T03:13:27.341Z,98076.28
2023-02-18T03:15:58.283Z,98078.13
2023-02-18T03:18:33.064Z,98087.00
2023-02-18T03:21:05.691Z,98085.34
2023-02-18T03:23:39.807Z,98092.38
2023-02-18T03:26:08.988Z,98095.06
2023-02-18T03:28:37.739Z,98101.47
2023-02-18T03:31:10.328Z,98100.63
2023-02-18T03:33:40.834Z,98101.47
2023-02-18T03:36:10.928Z,98108.50
2023-02-18T03:38:45.306Z,98103.13
2023-02-18T03:41:14.142Z,98104.16
2023-02-18T03:43:43.076Z,98102.28
2023-02-18T03:46:12.641Z,98100.63
2023-02-18T03:48:41.399Z,98093.41
2023-02-18T03:51:10.285Z,98095.28
2023-02-18T03:53:40.442Z,98107.88
2023-02-18T03:56:09.443Z,98102.28
2023-02-18T03:58:38.572Z,98107.88
2023-02-18T04:01:07.542Z,98112.38
2023-02-18T04:03:36.239Z,98115.91
2023-02-18T04:06:06.217Z,98121.28
2023-02-18T04:08:34.934Z,98121.28
2023-02-18T04:11:05.220Z,98117.75
2023-02-18T04:13:34.398Z,98123.97
2023-02-18T04:16:03.093Z,98108.88
2023-02-18T04:18:32.213Z,98117.13
2023-02-18T04:21:01.018Z,98121.28
2023-02-18T04:23:29.993Z,98128.69
2023-02-18T04:28:28.859Z,98117.94
2023-02-18T04:33:26.276Z,98121.66
2023-02-18T04:35:55.198Z,98121.66
2023-02-18T04:38:23.852Z,98123.47
2023-02-18T04:40:52.820Z,98122.50
2023-02-18T04:43:21.692Z,98129.72
2023-02-18T04:45:51.888Z,98132.41
2023-02-18T04:48:20.854Z,98142.13
2023-02-18T04:50:49.986Z,98149.34
2023-02-18T04:53:18.737Z,98149.34
2023-02-18T04:55:51.887Z,98152.84
2023-02-18T04:58:20.782Z,98155.53
2023-02-18T05:00:49.598Z,98155.53
2023-02-18T05:03:19.648Z,98152.84
2023-02-18T05:05:48.888Z,98160.91
2023-02-18T05:08:17.690Z,98142.13
2023-02-18T05:10:46.226Z,98149.34
2023-02-18T05:13:15.054Z,98151.19
2023-02-18T05:15:43.748Z,98153.88
2023-02-18T05:18:13.520Z,98144.97
2023-02-18T05:20:43.830Z,98149.34
2023-02-18T05:23:12.494Z,98160.09
2023-02-18T05:25:41.346Z,98154.88
2023-02-18T05:28:09.941Z,98153.88
2023-02-18T05:30:38.754Z,98149.50
2023-02-18T05:33:07.513Z,98146.66
2023-02-18T05:35:36.302Z,98142.28
2023-02-18T05:38:06.522Z,98151.19
2023-02-18T05:40:35.126Z,98151.38
2023-02-18T05:43:03.941Z,98154.88
2023-02-18T05:45:32.733Z,98147.66
2023-02-18T05:48:01.466Z,98151.38
2023-02-18T05:50:30.252Z,98147.66
2023-02-18T05:52:58.992Z,98152.19
2023-02-18T05:55:29.308Z,98153.88
2023-02-18T05:57:58.153Z,98144.97
2023-02-18T06:00:26.949Z,98152.19
2023-02-18T06:02:55.588Z,98152.19
2023-02-18T06:05:24.264Z,98147.66
2023-02-18T06:07:55.233Z,98148.50
2023-02-18T06:10:24.881Z,98158.41
2023-02-18T06:12:55.414Z,98160.25
2023-02-18T06:15:26.937Z,98160.25
2023-02-18T06:17:55.701Z,98171.00
2023-02-18T06:20:24.414Z,98175.38
2023-02-18T06:22:53.584Z,98163.75
2023-02-18T06:25:25.172Z,98166.66
2023-02-18T06:27:55.032Z,98175.38
2023-02-18T06:30:24.629Z,98176.19
2023-02-18T06:32:53.453Z,98174.50
2023-02-18T06:35:22.406Z,98184.41
2023-02-18T06:37:51.284Z,98169.34
2023-02-18T06:40:20.466Z,98172.69
2023-02-18T06:42:48.979Z,98167.47
2023-02-18T06:45:21.795Z,98172.00
2023-02-18T06:47:50.660Z,98156.91
2023-02-18T06:50:20.131Z,98175.69
2023-02-18T06:52:48.710Z,98165.81
2023-02-18T06:55:17.406Z,98168.31
2023-02-18T06:57:46.445Z,98175.38
2023-02-18T07:00:16.293Z,98178.06
2023-02-18T07:02:46.398Z,98182.75
2023-02-18T07:05:16.043Z,98181.56
2023-02-18T07:07:44.702Z,98180.38
2023-02-18T07:10:13.524Z,98182.19
2023-02-18T07:12:42.587Z,98183.91
2023-02-18T07:15:11.709Z,98189.28
2023-02-18T07:20:11.977Z,98182.19
2023-02-18T07:22:40.722Z,98178.31
2023-02-18T07:25:09.992Z,98183.06
2023-02-18T07:27:38.714Z,98188.91
2023-02-18T07:30:09.761Z,98192.91
2023-02-18T07:32:38.434Z,98193.09
2023-02-18T07:35:07.976Z,98181.69
2023-02-18T07:37:38.546Z,98189.06
2023-02-18T07:40:09.424Z,98187.41
2023-02-18T07:42:38.393Z,98195.47
2023-02-18T07:45:08.156Z,98201.66
2023-02-18T07:47:37.029Z,98197.13
2023-02-18T07:50:06.718Z,98202.34
2023-02-18T07:52:35.647Z,98195.31
2023-02-18T07:55:05.712Z,98204.91
2023-02-18T07:57:54.783Z,98200.00
2023-02-18T08:00:23.532Z,98202.69
2023-02-18T08:02:52.882Z,98203.38
2023-02-18T08:05:22.031Z,98209.56
2023-02-18T08:07:50.780Z,98200.47
2023-02-18T08:10:22.857Z,98211.22
2023-02-18T08:12:51.683Z,98217.25
2023-02-18T08:15:20.627Z,98210.22
2023-02-18T08:17:49.324Z,98212.56
2023-02-18T08:20:18.839Z,98210.16
2023-02-18T08:22:48.113Z,98207.66
2023-02-18T08:25:29.072Z,98210.34
2023-02-18T08:28:01.392Z,98209.66
2023-02-18T08:30:30.165Z,98190.03
2023-02-18T08:32:59.125Z,98205.13
2023-02-18T08:35:28.238Z,98211.53
2023-02-18T08:37:57.826Z,98211.53
2023-02-18T08:40:27.387Z,98197.06
2023-02-18T08:42:56.128Z,98204.13
2023-02-18T08:45:26.067Z,98210.34
2023-02-18T08:48:17.944Z,98210.34
2023-02-18T08:50:43.654Z,98222.56
2023-02-18T08:53:12.382Z,98220.56
2023-02-18T08:55:42.087Z,98211.00
2023-02-18T08:58:10.955Z,98214.50
2023-02-18T09:00:41.281Z,98217.56
2023-02-18T09:03:12.099Z,98212.84
2023-02-18T09:05:41.423Z,98211.16
2023-02-18T09:08:10.333Z,98211.16
2023-02-18T09:10:39.781Z,98212.34
2023-02-18T09:13:08.389Z,98214.22
2023-02-18T09:15:37.018Z,98208.84
2023-02-18T09:18:09.637Z,98204.50
2023-02-18T09:20:38.191Z,98192.91
2023-02-18T09:23:07.165Z,98203.09
2023-02-18T09:25:35.756Z,98205.78
2023-02-18T09:28:04.526Z,98206.47
2023-02-18T09:30:33.331Z,98203.78
2023-02-18T09:33:02.027Z,98208.13
2023-02-18T09:35:32.333Z,98213.31
2023-02-18T09:38:01.507Z,98209.81
2023-02-18T09:40:32.989Z,98197.22
2023-02-18T09:43:01.660Z,98192.88
2023-02-18T09:45:30.402Z,98188.47
2023-02-18T09:47:58.975Z,98187.66
2023-02-18T09:50:29.510Z,98186.81
2023-02-18T09:53:00.422Z,98166.16
2023-02-18T09:55:30.704Z,98183.13
2023-02-18T09:58:01.327Z,98175.88
2023-02-18T10:00:33.527Z,98176.91
2023-02-18T10:03:06.182Z,98185.81
2023-02-18T10:05:35.317Z,98187.66
2023-02-18T10:08:07.909Z,98184.13
2023-02-18T10:10:40.459Z,98189.69
2023-02-18T10:13:14.102Z,98185.13
2023-02-18T10:15:43.265Z,98170.88
2023-02-18T10:18:25.520Z,98188.03
2023-02-18T10:20:55.240Z,98188.84
2023-02-18T10:23:25.422Z,98189.00
2023-02-18T10:25:53.974Z,98186.00
2023-02-18T10:28:24.194Z,98176.09
2023-02-18T10:30:56.246Z,98189.88
2023-02-18T10:33:34.593Z,98186.81
2023-02-18T10:36:23.353Z,98190.50
2023-02-18T10:39:21.852Z,98191.69
2023-02-18T10:41:57.713Z,98181.44
2023-02-18T10:44:33.325Z,98186.31
2023-02-18T10:47:07.909Z,98189.22
2023-02-18T10:49:55.104Z,98179.28
2023-02-18T10:52:23.912Z,98173.94
2023-02-18T10:55:00.403Z,98178.28
2023-02-18T10:57:29.173Z,98184.31
2023-02-18T11:00:01.837Z,98185.69
2023-02-18T11:02:32.912Z,98177.63
2023-02-18T11:05:02.831Z,98183.00
2023-02-18T11:07:34.040Z,98164.19
2023-02-18T11:10:11.846Z,98157.34
2023-02-18T11:12:46.276Z,98161.53
2023-02-18T11:15:23.693Z,98152.63
2023-02-18T11:17:54.061Z,98145.22
2023-02-18T11:20:31.455Z,98141.69
2023-02-18T11:23:18.013Z,98138.34
2023-02-18T11:25:58.809Z,98123.91
2023-02-18T11:28:49.207Z,98128.47
2023-02-18T11:31:24.442Z,98125.56
2023-02-18T11:33:54.335Z,98117.72
2023-02-18T11:36:27.337Z,98119.53
2023-02-18T11:38:57.085Z,98112.97
2023-02-18T11:41:35.181Z,98112.16
2023-02-18T11:44:04.143Z,98105.13
2023-02-18T11:46:33.241Z,98094.38
2023-02-18T11:49:22.407Z,98102.44
2023-02-18T11:51:51.799Z,98102.44
2023-02-18T11:54:26.889Z,98096.22
2023-02-18T11:56:59.805Z,98089.00
2023-02-18T11:59:28.592Z,98078.41
2023-02-18T12:02:02.978Z,98071.19
2023-02-18T12:04:34.931Z,98077.44
2023-02-18T12:07:14.774Z,98064.81
2023-02-18T12:09:46.694Z,98054.06
2023-02-18T12:12:19.198Z,98056.94
2023-02-18T12:14:47.859Z,98061.09
2023-02-18T12:17:36.210Z,98055.75
2023-02-18T12:20:21.004Z,98045.81
2023-02-18T12:22:53.569Z,98040.81
2023-02-18T12:25:35.606Z,98030.72
2023-02-18T12:28:24.312Z,98032.59
2023-02-18T12:31:23.013Z,98026.41
2023-02-18T12:34:03.145Z,98013.78
2023-02-18T12:36:42.154Z,98008.59
2023-02-18T12:39:13.758Z,97994.34
2023-02-18T12:42:17.897Z,97987.94
2023-02-18T12:44:59.760Z,97968.31
2023-02-18T12:47:48.638Z,97964.78
2023-02-18T12:50:38.903Z,97947.63
2023-02-18T12:53:32.394Z,97939.59
2023-02-18T12:56:12.934Z,97938.75
2023-02-18T12:58:49.765Z,97921.00
2023-02-18T13:01:36.433Z,97920.16
2023-02-18T13:04:27.582Z,97923.47
2023-02-18T13:07:25.512Z,97911.91
2023-02-18T13:10:06.072Z,97907.56
2023-02-18T13:12:39.622Z,97906.72
2023-02-18T13:15:15.435Z,97889.59
2023-02-18T13:17:45.942Z,97888.75
2023-02-18T13:20:20.270Z,97885.25
2023-02-18T13:22:50.596Z,97882.56
2023-02-18T13:25:19.682Z,97884.88
2023-02-18T13:27:55.333Z,97870.78
2023-02-18T13:30:27.218Z,97857.72
2023-02-18T13:33:06.639Z,97860.41
2023-02-18T13:35:37.624Z,97855.69
2023-02-18T13:38:23.146Z,97851.59
2023-02-18T13:40:52.078Z,97840.41
2023-02-18T13:43:30.564Z,97832.16
2023-02-18T13:46:14.470Z,97824.31
2023-02-18T13:48:52.509Z,97816.63
2023-02-18T13:51:30.888Z,97817.25
2023-02-18T13:54:04.345Z,97815.41
2023-02-18T13:56:34.315Z,97805.50
2023-02-18T13:59:09.162Z,97797.25
2023-02-18T14:01:43.963Z,97792.91
2023-02-18T14:04:56.472Z,97777.81
2023-02-18T14:07:31.395Z,97775.97
2023-02-18T14:10:00.546Z,97780.50
2023-02-18T14:12:38.971Z,97764.41
2023-02-18T14:15:49.697Z,97757.16
2023-02-18T14:18:59.656Z,97751.97
2023-02-18T14:21:43.755Z,97753.66
2023-02-18T14:24:13.725Z,97749.09
2023-02-18T14:26:46.805Z,97742.06
2023-02-18T14:29:32.095Z,97735.47
2023-02-18T14:32:04.404Z,97731.78
2023-02-18T14:35:23.055Z,97709.66
2023-02-18T14:38:28.092Z,97688.81
2023-02-18T14:41:29.720Z,97666.50
2023-02-18T14:44:43.110Z,97655.75
2023-02-18T14:47:22.368Z,97653.91
2023-02-18T14:49:51.653Z,97654.72
2023-02-18T14:52:28.470Z,97635.72
2023-02-18T14:54:58.511Z,97635.72
2023-02-18T14:57:33.064Z,97630.16
2023-02-18T15:00:01.816Z,97622.28
2023-02-18T15:02:32.303Z,97607.66
2023-02-18T15:05:20.686Z,97605.16
2023-02-18T15:08:00.294Z,97602.47
2023-02-18T15:10:40.339Z,97609.06
2023-02-18T15:13:14.115Z,97594.00
2023-02-18T15:15:42.922Z,97593.78
2023-02-18T15:18:20.109Z,97584.06
2023-02-18T15:20:48.869Z,97571.66
2023-02-18T15:23:17.882Z,97573.34
2023-02-18T15:25:51.549Z,97567.13
2023-02-18T15:28:25.708Z,97554.94
2023-02-18T15:30:54.538Z,97552.25
2023-02-18T15:33:23.395Z,97550.81
2023-02-18T15:35:52.226Z,97533.66
2023-02-18T15:38:22.511Z,97533.09
2023-02-18T15:40:53.844Z,97524.38
2023-02-18T15:43:23.489Z,97521.09
2023-02-18T15:45:53.348Z,97525.81
2023-02-18T15:48:31.966Z,97520.63
2023-02-18T15:51:16.172Z,97507.19
2023-02-18T15:53:46.597Z,97509.88
2023-02-18T15:56:21.189Z,97517.13
2023-02-18T15:58:49.688Z,97514.44
2023-02-18T16:01:28.468Z,97515.25
2023-02-18T16:03:57.227Z,97515.25
2023-02-18T16:06:28.390Z,97496.84
2023-02-18T16:08:59.926Z,97489.63
2023-02-18T16:11:32.736Z,97498.97
2023-02-18T16:14:01.421Z,97498.13
2023-02-18T16:16:32.416Z,97503.69
2023-02-18T16:19:01.248Z,97496.66
2023-02-18T16:21:34.633Z,97502.03
2023-02-18T16:24:04.189Z,97495.00
2023-02-18T16:26:43.593Z,97495.84
2023-02-18T16:29:15.608Z,97496.84
2023-02-18T16:31:44.853Z,97499.53
2023-02-18T16:34:13.519Z,97496.84
2023-02-18T16:37:02.422Z,97495.84
2023-02-18T16:39:32.242Z,97496.22
2023-02-18T16:42:02.522Z,97507.59
2023-02-18T16:44:31.185Z,97510.28
2023-02-18T16:46:59.866Z,97511.31
2023-02-18T16:49:28.728Z,97514.00
2023-02-18T16:51:57.934Z,97519.38
2023-02-18T16:54:28.682Z,97521.84
2023-02-18T16:56:57.353Z,97527.22
2023-02-18T16:59:27.845Z,97522.69
2023-02-18T17:01:56.446Z,97531.38
2023-02-18T17:04:25.494Z,97522.69
2023-02-18T17:06:54.591Z,97522.69
2023-02-18T17:09:27.043Z,97522.69
2023-02-18T17:11:56.503Z,97518.34
2023-02-18T17:14:26.598Z,97524.75
2023-02-18T17:16:55.314Z,97520.38
2023-02-18T17:19:24.225Z,97531.97
2023-02-18T17:21:53.192Z,97530.28
2023-02-18T17:24:21.978Z,97533.44
2023-02-18T17:26:51.261Z,97530.53
2023-02-18T17:29:20.365Z,97527.22
2023-02-18T17:31:57.826Z,97518.53
2023-02-18T17:34:29.144Z,97534.44
2023-02-18T17:36:57.899Z,97530.94
2023-02-18T17:39:26.681Z,97531.75
2023-02-18T17:41:55.402Z,97543.16
2023-02-18T17:44:24.737Z,97542.97
2023-02-18T17:46:55.084Z,97551.63
2023-02-18T17:49:23.891Z,97542.09
2023-02-18T17:51:52.911Z,97545.25
2023-02-18T17:54:22.841Z,97545.88
2023-02-18T17:56:52.393Z,97551.47
2023-02-18T17:59:20.970Z,97565.72
2023-02-18T18:01:49.640Z,97558.09
2023-02-18T18:04:20.601Z,97571.72
2023-02-18T18:06:50.014Z,97565.72
2023-02-18T18:09:18.711Z,97564.50
2023-02-18T18:11:47.403Z,97579.97
2023-02-18T18:14:16.360Z,97587.00
2023-02-18T18:16:45.128Z,97589.94
2023-02-18T18:19:14.072Z,97586.81
2023-02-18T18:21:45.395Z,97584.94
2023-02-18T18:24:14.503Z,97577.75
2023-02-18T18:26:44.234Z,97575.66
2023-02-18T18:29:12.927Z,97579.38
2023-02-18T18:31:41.731Z,97585.59
2023-02-18T18:34:11.336Z,97582.06
2023-02-18T18:36:40.078Z,97590.56
2023-02-18T18:39:10.584Z,97586.88
2023-02-18T18:41:39.363Z,97579.81
2023-02-18T18:44:08.136Z,97586.47
2023-02-18T18:46:37.289Z,97596.19
2023-02-18T18:49:05.927Z,97607.75
2023-02-18T18:51:35.110Z,97609.44
2023-02-18T18:54:03.792Z,97597.88
2023-02-18T18:56:33.788Z,97606.28
2023-02-18T18:59:02.849Z,97587.69
2023-02-18T19:01:33.189Z,97593.25
2023-02-18T19:04:02.012Z,97612.06
2023-02-18T19:06:31.317Z,97616.59
2023-02-18T19:09:00.512Z,97612.88
2023-02-18T19:11:29.160Z,97625.47
2023-02-18T19:13:59.285Z,97623.25
2023-02-18T19:16:31.227Z,97637.53
2023-02-18T19:18:59.798Z,97626.94
2023-02-18T19:21:28.778Z,97642.44
2023-02-18T19:23:57.382Z,97639.31
2023-02-18T19:26:25.912Z,97644.69
2023-02-18T19:28:54.668Z,97641.00
2023-02-18T19:31:24.920Z,97650.06
2023-02-18T19:33:53.676Z,97627.72
2023-02-18T19:36:22.539Z,97635.16
2023-02-18T19:38:51.683Z,97640.53
2023-02-18T19:41:20.318Z,97629.78
2023-02-18T19:43:49.040Z,97643.41
2023-02-18T19:46:18.865Z,97641.56
2023-02-18T19:48:52.355Z,97644.41
2023-02-18T19:51:21.963Z,97654.97
2023-02-18T19:53:50.524Z,97653.31
2023-02-18T19:56:19.314Z,97653.13
2023-02-18T19:58:48.047Z,97657.66
2023-02-18T20:01:17.884Z,97645.25
2023-02-18T20:03:47.471Z,97653.31
2023-02-18T20:06:18.301Z,97655.16
2023-02-18T20:08:47.018Z,97658.88
2023-02-18T20:11:15.652Z,97661.56
2023-02-18T20:13:44.225Z,97664.25
2023-02-18T20:16:13.175Z,97659.72
2023-02-18T20:18:42.380Z,97672.31
2023-02-18T20:21:12.762Z,97660.75
2023-02-18T20:23:42.736Z,97663.22
2023-02-18T20:26:12.165Z,97674.59
2023-02-18T20:28:41.300Z,97682.66
2023-02-18T20:31:11.966Z,97683.69
2023-02-18T20:33:42.396Z,97695.44
2023-02-18T20:36:11.372Z,97726.84
2023-02-18T20:38:41.968Z,97736.78
2023-02-18T20:41:14.203Z,97766.31
2023-02-18T20:43:43.003Z,97780.56
2023-02-18T20:46:14.358Z,97788.81
2023-02-18T20:48:43.034Z,97795.03
2023-02-18T20:51:14.093Z,97799.53
2023-02-18T20:53:45.113Z,97804.91
2023-02-18T20:56:13.819Z,97811.16
2023-02-18T20:58:42.671Z,97807.59
2023-02-18T21:01:12.876Z,97805.94
2023-02-18T21:03:42.287Z,97814.00
2023-02-18T21:06:14.029Z,97820.22
2023-02-18T21:08:45.656Z,97818.34
2023-02-18T21:11:15.925Z,97833.84
2023-02-18T21:13:44.527Z,97830.94
2023-02-18T21:16:13.184Z,97836.31
2023-02-18T21:18:41.810Z,97846.25
2023-02-18T21:21:11.243Z,97850.56
2023-02-18T21:23:40.347Z,97850.78
2023-02-18T21:26:12.005Z,97857.81
2023-02-18T21:28:40.886Z,97857.81
2023-02-18T21:31:18.658Z,97866.69
2023-02-18T21:33:47.494Z,97860.50
2023-02-18T21:36:16.351Z,97856.97
2023-02-18T21:38:45.624Z,97862.34
2023-02-18T21:41:15.810Z,97859.66
2023-02-18T21:43:47.328Z,97855.31
2023-02-18T21:46:18.269Z,97856.16
2023-02-18T21:49:06.932Z,97873.09
2023-02-18T21:52:00.467Z,97875.13
2023-02-18T21:54:30.199Z,97879.50
2023-02-18T21:57:00.981Z,97887.56
2023-02-18T21:59:30.624Z,97900.78
2023-02-18T22:02:01.246Z,97898.31
2023-02-18T22:04:30.793Z,97904.50
2023-02-18T22:06:59.857Z,97903.66
2023-02-18T22:09:28.510Z,97905.53
2023-02-18T22:11:57.486Z,97920.63
2023-02-18T22:14:28.003Z,97917.09
2023-02-18T22:16:56.863Z,97917.72
2023-02-18T22:19:25.752Z,97913.22
2023-02-18T22:21:54.422Z,97914.41
2023-02-18T22:24:23.274Z,97910.03
2023-02-18T22:26:51.884Z,97917.28
2023-02-18T22:29:21.799Z,97929.88
2023-02-18T22:31:53.558Z,97935.06
2023-02-18T22:34:22.944Z,97923.47
2023-02-18T22:36:52.083Z,97912.72
2023-02-18T22:39:20.630Z,97935.06
2023-02-18T22:41:49.442Z,97926.16
2023-02-18T22:44:18.541Z,97934.88
2023-02-18T22:46:47.377Z,97941.56
2023-02-18T22:49:17.964Z,97941.34
2023-02-18T22:51:46.688Z,97945.91
2023-02-18T22:54:16.939Z,97953.28
2023-02-18T22:56:46.064Z,97958.66
2023-02-18T22:59:15.671Z,97958.66
2023-02-18T23:01:49.318Z,97961.34
2023-02-18T23:04:20.852Z,97968.59
2023-02-18T23:06:50.152Z,97964.03
2023-02-18T23:09:21.478Z,97969.41
2023-02-18T23:11:53.793Z,97969.41
2023-02-18T23:14:22.563Z,97968.59
2023-02-18T23:17:09.909Z,97977.66
2023-02-18T23:19:41.281Z,97981.19
2023-02-18T23:22:10.446Z,97973.13
2023-02-18T23:24:40.953Z,97990.06
2023-02-18T23:27:10.955Z,97993.78
2023-02-18T23:29:40.050Z,97987.56
2023-02-18T23:32:08.628Z,97984.69
2023-02-18T23:34:38.249Z,97986.56
2023-02-18T23:37:08.455Z,98003.50
2023-02-18T23:39:37.260Z,98008.06
2023-02-18T23:42:06.206Z,98002.69
2023-02-18T23:44:35.088Z,98008.06
2023-02-18T23:47:03.804Z,98013.41
2023-02-18T23:49:32.697Z,97998.31
2023-02-18T23:52:01.487Z,98001.84
2023-02-18T23:54:31.353Z,98006.19
2023-02-18T23:57:00.153Z,98007.03
2023-02-18T23:59:28.788Z,98012.41
